Terminal Aerodrome Forecast
Issued by NWS St Louis, MO

Home | Current Version | Previous Version | Text Only | Print | Product List | Glossary On
Versions: 1 2 3 4 5 6 7 8 9 10 11 12 13 14 15 16 17 18 19 20 21 22 23 24 25 26 27 28
228
FTUS43 KLSX 252056 AAA
TAFSTL
TAF AMD
KSTL 252056Z 2521/2624 15014KT P6SM -SHRA VCTS SCT017 OVC040CB
      TEMPO 2521/2523 BKN017CB
     FM260000 15009KT P6SM -SHRA OVC040
     FM260200 16007KT P6SM VCSH OVC060
     FM260900 21005KT P6SM OVC025
     FM261200 21006KT P6SM OVC010
     FM262100 24007KT P6SM BKN035=

USA.gov is the U.S. government's official web portal to all federal, state and local government web resources and services.